Time;durP1;ratioP1;P1;durP2;ratioP2;P2;SDS_P1;SDS_P2;PMS_P1;PMS_P2;Temp;Humidity;BMP_temperature;BMP_pressure;BME280_temperature;BME280_humidity;BME280_pressure;Samples;Min_cycle;Max_cycle;Signal;HPM_P1;HPM_P2
2024/03/14 00:02:22;;;;;;;10.40;7.18;;;11.80;92.10;;;;;;6272592;22;20011;-65
2024/03/14 00:05:09;;;;;;;10.93;7.05;;;11.90;92.10;;;;;;6273723;22;20036;-65
2024/03/14 00:07:57;;;;;;;8.95;6.15;;;11.90;92.10;;;;;;6301150;22;20012;-64
2024/03/14 00:10:43;;;;;;;10.48;6.63;;;11.90;92.10;;;;;;6294444;22;20023;-65
2024/03/14 00:13:29;;;;;;;12.85;7.97;;;11.90;92.20;;;;;;6273386;22;20100;-66
2024/03/14 00:16:16;;;;;;;12.02;7.00;;;11.90;92.20;;;;;;6271075;22;20015;-65
2024/03/14 00:19:01;;;;;;;9.63;6.88;;;11.90;92.20;;;;;;6272937;22;20424;-65
2024/03/14 00:21:48;;;;;;;10.13;7.88;;;11.90;92.20;;;;;;6271628;22;20344;-65
2024/03/14 00:24:34;;;;;;;10.18;6.75;;;12.00;92.30;;;;;;6273534;22;20027;-65
2024/03/14 00:27:20;;;;;;;9.77;6.50;;;12.00;92.30;;;;;;6272691;22;20066;-65
2024/03/14 00:30:10;;;;;;;8.88;6.57;;;12.00;92.30;;;;;;6271022;22;20489;-64
2024/03/14 00:32:59;;;;;;;11.15;6.45;;;12.10;92.30;;;;;;6253828;22;20122;-65
2024/03/14 00:35:46;;;;;;;9.13;6.50;;;12.10;92.30;;;;;;6274651;22;20086;-65
2024/03/14 00:38:32;;;;;;;8.43;6.03;;;12.10;92.30;;;;;;6274672;22;20420;-64
2024/03/14 00:41:19;;;;;;;9.75;6.80;;;12.10;92.30;;;;;;6274120;22;20007;-64
2024/03/14 00:44:05;;;;;;;8.68;6.13;;;12.10;92.50;;;;;;6274647;22;20345;-64
2024/03/14 00:46:51;;;;;;;9.65;6.57;;;12.10;92.30;;;;;;6272715;22;20364;-65
2024/03/14 00:49:38;;;;;;;8.02;5.72;;;12.20;92.30;;;;;;6274658;22;20004;-64
2024/03/14 00:52:24;;;;;;;8.13;6.10;;;12.20;92.40;;;;;;6250948;22;20389;-62
2024/03/14 00:55:10;;;;;;;9.88;6.05;;;12.20;92.40;;;;;;6275028;22;20003;-64
2024/03/14 00:57:57;;;;;;;9.35;6.78;;;12.20;92.60;;;;;;6273967;22;20077;-63
2024/03/14 01:00:43;;;;;;;10.20;7.05;;;12.20;92.80;;;;;;6275045;22;20389;-63
2024/03/14 01:03:32;;;;;;;10.48;7.10;;;12.10;93.20;;;;;;6272882;22;20008;-63
2024/03/14 01:06:18;;;;;;;8.88;6.57;;;12.10;93.60;;;;;;6273402;22;20042;-63
2024/03/14 01:09:04;;;;;;;11.00;7.65;;;12.00;93.90;;;;;;6273495;22;20138;-63
2024/03/14 01:11:50;;;;;;;10.15;6.32;;;12.00;94.30;;;;;;6274691;22;20016;-63
2024/03/14 01:14:36;;;;;;;10.52;6.95;;;12.00;94.60;;;;;;6272825;22;20003;-62
2024/03/14 01:17:23;;;;;;;11.55;7.22;;;12.00;94.90;;;;;;6274559;22;20456;-62
2024/03/14 01:20:16;;;;;;;11.40;6.95;;;11.90;95.10;;;;;;6273519;22;20309;-63
2024/03/14 01:23:01;;;;;;;9.43;6.97;;;11.90;95.30;;;;;;6249957;22;20000;-63
2024/03/14 01:25:48;;;;;;;9.98;7.15;;;11.90;95.50;;;;;;6273288;22;20018;-64
2024/03/14 01:28:33;;;;;;;10.23;8.32;;;11.80;95.80;;;;;;6274436;22;20054;-64
2024/03/14 01:31:19;;;;;;;9.02;7.30;;;11.80;96.00;;;;;;6273116;22;20019;-63
2024/03/14 01:34:05;;;;;;;10.32;7.68;;;11.80;96.20;;;;;;6274496;22;20008;-63
2024/03/14 01:36:51;;;;;;;12.25;7.75;;;11.80;96.40;;;;;;6274293;22;20432;-63
2024/03/14 01:39:37;;;;;;;11.32;7.65;;;11.80;96.50;;;;;;6273113;22;20027;-65
2024/03/14 01:42:23;;;;;;;10.50;8.25;;;11.80;96.70;;;;;;6249358;22;20011;-63
2024/03/14 01:45:10;;;;;;;11.43;8.35;;;11.70;96.90;;;;;;6272740;22;20004;-64
2024/03/14 01:47:56;;;;;;;14.07;9.07;;;11.70;97.10;;;;;;6274405;22;20012;-63
2024/03/14 01:50:42;;;;;;;17.30;9.07;;;11.70;97.20;;;;;;6271035;22;20019;-63
2024/03/14 01:53:28;;;;;;;13.82;9.10;;;11.70;97.40;;;;;;6273501;22;20019;-64
2024/03/14 01:56:14;;;;;;;11.15;7.93;;;11.70;97.60;;;;;;6273862;22;20091;-64
2024/03/14 01:59:00;;;;;;;12.20;8.77;;;11.70;97.80;;;;;;6271320;22;20012;-63
2024/03/14 02:01:47;;;;;;;12.07;8.85;;;11.70;97.90;;;;;;6271225;22;20039;-62
2024/03/14 02:04:49;;;;;;;11.00;8.50;;;11.70;98.10;;;;;;6251425;22;20551;-64
2024/03/14 02:07:39;;;;;;;12.93;8.50;;;11.70;98.30;;;;;;6270855;22;20023;-64
2024/03/14 02:10:25;;;;;;;13.43;8.85;;;11.70;98.40;;;;;;6272351;22;20451;-65
2024/03/14 02:13:11;;;;;;;12.02;8.45;;;11.70;98.50;;;;;;6272526;22;20022;-63
2024/03/14 02:15:57;;;;;;;12.85;8.95;;;11.70;98.60;;;;;;6271321;22;20046;-64
2024/03/14 05:37:05;;;;;;;19.38;11.73;;;12.20;99.90;;;;;;6270852;22;20448;-65
2024/03/14 05:39:51;;;;;;;18.77;13.02;;;12.20;99.90;;;;;;6273337;22;20098;-65
2024/03/14 05:42:37;;;;;;;19.23;13.70;;;12.20;99.90;;;;;;6272741;22;20046;-65
2024/03/14 05:45:23;;;;;;;19.55;13.52;;;12.30;99.90;;;;;;6273961;22;20042;-65
2024/03/14 05:48:11;;;;;;;21.33;13.40;;;12.30;99.90;;;;;;6273626;22;20510;-65
2024/03/14 05:50:56;;;;;;;18.10;12.90;;;12.30;99.90;;;;;;6273577;22;20011;-66
2024/03/14 05:53:42;;;;;;;20.58;13.30;;;12.30;99.90;;;;;;6272855;22;20433;-63
2024/03/14 05:56:28;;;;;;;19.00;12.60;;;12.30;99.90;;;;;;6273118;22;20479;-63
2024/03/14 05:59:15;;;;;;;23.77;14.35;;;12.40;99.90;;;;;;6272621;22;20007;-64
2024/03/14 06:02:01;;;;;;;20.95;13.77;;;12.40;99.90;;;;;;6251673;22;20008;-64
2024/03/14 06:04:47;;;;;;;20.17;13.60;;;12.40;99.90;;;;;;6273049;22;20098;-63
2024/03/14 06:07:33;;;;;;;21.63;13.90;;;12.40;99.90;;;;;;6273723;22;20008;-63
2024/03/14 06:10:20;;;;;;;20.80;14.43;;;12.40;99.90;;;;;;6273519;22;20098;-63
2024/03/14 06:13:06;;;;;;;21.08;14.75;;;12.40;99.90;;;;;;6272609;22;20074;-65
2024/03/14 06:15:52;;;;;;;18.50;13.35;;;12.40;99.90;;;;;;6272456;22;20061;-63
2024/03/14 06:18:38;;;;;;;24.30;14.63;;;12.50;99.90;;;;;;6272923;22;20333;-60
2024/03/14 06:21:24;;;;;;;21.25;13.50;;;12.60;99.90;;;;;;6273013;22;20436;-62
2024/03/14 06:24:10;;;;;;;22.45;13.60;;;12.60;99.90;;;;;;6272637;22;20015;-61
2024/03/14 06:26:56;;;;;;;19.50;13.77;;;12.60;99.90;;;;;;6272769;22;20008;-62
2024/03/14 06:29:42;;;;;;;21.52;13.70;;;12.60;99.90;;;;;;6272344;22;20008;-61
2024/03/14 06:32:28;;;;;;;23.45;14.80;;;12.60;99.90;;;;;;6272088;22;20444;-62
2024/03/14 06:35:15;;;;;;;21.08;14.32;;;12.70;99.90;;;;;;6270866;22;20425;-62
2024/03/14 06:38:03;;;;;;;22.27;13.50;;;12.70;99.90;;;;;;6271459;22;20023;-63
2024/03/14 06:40:51;;;;;;;22.35;14.68;;;12.70;99.90;;;;;;6272050;22;20004;-62
2024/03/14 06:43:37;;;;;;;23.83;14.38;;;12.80;99.90;;;;;;6272519;22;20007;-63
2024/03/14 06:46:26;;;;;;;17.80;12.80;;;12.80;99.90;;;;;;6271290;22;20027;-63
2024/03/14 06:49:12;;;;;;;21.95;13.88;;;12.90;99.90;;;;;;6251970;22;20087;-63
2024/03/14 06:52:00;;;;;;;20.52;14.00;;;12.90;99.90;;;;;;6270931;22;20015;-63
2024/03/14 06:54:47;;;;;;;22.25;13.68;;;12.90;99.90;;;;;;6273894;22;20015;-64
2024/03/14 06:57:34;;;;;;;21.58;12.77;;;12.90;99.90;;;;;;6288702;22;20008;-62
2024/03/14 07:00:24;;;;;;;21.75;14.10;;;12.90;99.90;;;;;;6283834;22;20020;-63
2024/03/14 07:03:12;;;;;;;21.48;14.27;;;12.90;99.90;;;;;;6273328;22;20011;-63
2024/03/14 07:05:57;;;;;;;19.92;13.32;;;13.00;99.90;;;;;;6273506;22;20007;-63
2024/03/14 07:08:43;;;;;;;20.85;13.77;;;13.00;99.90;;;;;;6273258;22;20004;-62
2024/03/14 07:11:29;;;;;;;25.50;13.93;;;13.10;99.90;;;;;;6273766;22;20027;-64
2024/03/14 07:14:16;;;;;;;18.35;13.93;;;13.10;99.90;;;;;;6273069;22;20031;-62
2024/03/14 07:17:02;;;;;;;18.70;13.82;;;13.20;99.90;;;;;;6270334;22;20011;-61
2024/03/14 07:19:48;;;;;;;21.63;13.32;;;13.20;99.90;;;;;;6267671;22;20018;-61
2024/03/14 07:22:35;;;;;;;22.45;13.85;;;13.30;99.90;;;;;;6252166;22;20020;-61
2024/03/14 07:25:21;;;;;;;19.98;13.18;;;13.30;99.90;;;;;;6270400;22;20012;-61
2024/03/14 07:28:09;;;;;;;21.42;13.50;;;13.30;99.90;;;;;;6272293;22;20018;-60
2024/03/14 07:30:57;;;;;;;20.52;13.48;;;13.40;99.90;;;;;;6251535;22;20115;-60
2024/03/14 07:33:43;;;;;;;21.70;13.38;;;13.40;99.90;;;;;;6248218;22;20011;-61
2024/03/14 07:36:29;;;;;;;20.50;14.05;;;13.40;99.90;;;;;;6271819;22;20027;-61
2024/03/14 07:39:15;;;;;;;21.27;13.00;;;13.50;99.90;;;;;;6273040;22;20011;-62
2024/03/14 07:42:02;;;;;;;23.00;14.43;;;13.50;99.90;;;;;;6271867;22;20004;-62
2024/03/14 07:44:48;;;;;;;20.92;13.75;;;13.50;99.90;;;;;;6273461;22;20007;-62
2024/03/14 07:47:35;;;;;;;17.95;13.55;;;13.50;99.90;;;;;;6273765;22;20077;-61
2024/03/14 07:50:22;;;;;;;21.60;13.98;;;13.50;99.90;;;;;;6252486;22;20432;-62
2024/03/14 07:53:09;;;;;;;18.45;13.40;;;13.50;99.90;;;;;;6272512;22;20038;-61
2024/03/14 07:55:56;;;;;;;18.75;12.10;;;13.60;99.90;;;;;;6273318;22;20008;-61
2024/03/14 07:58:42;;;;;;;21.15;13.43;;;13.60;99.90;;;;;;6272865;22;20010;-61
2024/03/14 08:01:28;;;;;;;20.17;13.45;;;13.70;99.90;;;;;;6273449;22;20365;-63
2024/03/14 08:04:14;;;;;;;19.58;13.30;;;13.70;99.90;;;;;;6272907;22;20420;-62
2024/03/14 08:07:10;;;;;;;19.33;13.02;;;13.70;99.90;;;;;;6272931;22;20012;-61
2024/03/14 08:09:57;;;;;;;21.63;14.02;;;13.70;99.90;;;;;;6273887;22;20083;-61
2024/03/14 08:12:43;;;;;;;18.52;12.50;;;13.80;99.90;;;;;;6254285;22;20448;-63
2024/03/14 08:15:35;;;;;;;20.85;12.98;;;13.80;99.90;;;;;;6251827;22;20014;-63
2024/03/14 08:18:22;;;;;;;18.45;11.77;;;13.80;99.90;;;;;;6272130;22;20069;-62
2024/03/14 08:21:09;;;;;;;20.55;13.15;;;13.80;99.90;;;;;;6251734;22;20008;-61
2024/03/14 08:23:58;;;;;;;21.38;12.73;;;13.80;99.90;;;;;;6273232;22;20038;-62
2024/03/14 08:26:46;;;;;;;20.17;13.45;;;13.80;99.90;;;;;;6273299;22;20015;-62
2024/03/14 08:29:32;;;;;;;20.95;14.40;;;13.90;99.90;;;;;;6272858;22;20015;-62
2024/03/14 08:32:18;;;;;;;20.88;13.05;;;13.90;99.90;;;;;;6271375;22;20015;-61
2024/03/14 08:35:06;;;;;;;22.13;13.55;;;14.00;99.90;;;;;;6271270;22;20007;-61
2024/03/14 08:37:52;;;;;;;22.25;14.65;;;14.00;99.90;;;;;;6250626;22;20103;-62
2024/03/14 08:40:39;;;;;;;18.40;12.93;;;14.00;99.90;;;;;;6272008;22;20004;-62
2024/03/14 08:43:25;;;;;;;19.60;11.73;;;14.10;99.90;;;;;;6273014;22;20444;-62
2024/03/14 08:46:12;;;;;;;23.63;14.85;;;14.10;99.90;;;;;;6274110;22;20375;-61
2024/03/14 08:48:58;;;;;;;21.88;13.80;;;14.20;99.90;;;;;;6272769;22;20440;-68
2024/03/14 08:51:45;;;;;;;19.65;12.75;;;14.20;99.90;;;;;;6270989;22;20019;-69
2024/03/14 08:54:33;;;;;;;20.70;13.63;;;14.30;99.90;;;;;;6269118;22;20066;-69
2024/03/14 08:57:23;;;;;;;24.73;13.43;;;14.40;99.90;;;;;;6272605;22;20016;-69
2024/03/14 09:00:09;;;;;;;19.58;12.30;;;14.40;99.90;;;;;;6272314;22;20008;-68
2024/03/14 09:02:55;;;;;;;25.42;15.00;;;14.50;99.90;;;;;;6273381;22;20094;-68
2024/03/14 09:05:42;;;;;;;23.13;13.45;;;14.50;99.90;;;;;;6273833;22;20008;-68
2024/03/14 09:08:29;;;;;;;22.52;13.73;;;14.60;99.90;;;;;;6272068;22;20046;-67
2024/03/14 09:11:19;;;;;;;19.25;12.13;;;14.60;99.90;;;;;;6270458;22;20030;-67
2024/03/14 09:14:05;;;;;;;21.77;13.43;;;14.70;99.90;;;;;;6271856;22;20058;-68
2024/03/14 09:16:51;;;;;;;20.95;14.38;;;14.80;99.90;;;;;;6273361;22;20012;-67
2024/03/14 09:19:39;;;;;;;21.17;13.35;;;14.80;99.90;;;;;;6251109;22;20008;-68
2024/03/14 09:22:25;;;;;;;20.70;12.75;;;14.90;99.90;;;;;;6272029;22;20034;-68
2024/03/14 09:25:14;;;;;;;20.60;12.43;;;14.90;99.90;;;;;;6269793;22;20011;-67
2024/03/14 09:28:00;;;;;;;21.98;12.88;;;15.00;99.90;;;;;;6272451;22;20026;-68
2024/03/14 09:30:46;;;;;;;19.48;12.60;;;15.10;99.90;;;;;;6270256;22;20408;-67
2024/03/14 09:33:32;;;;;;;24.63;14.18;;;15.10;99.90;;;;;;6250853;22;20045;-68
2024/03/14 09:36:19;;;;;;;18.77;11.95;;;15.20;99.90;;;;;;6274552;22;20004;-68
2024/03/14 09:39:18;;;;;;;19.00;12.73;;;15.30;99.90;;;;;;6272450;22;20007;-68
2024/03/14 09:42:05;;;;;;;18.98;12.70;;;15.30;99.90;;;;;;6271740;22;20065;-68
2024/03/14 09:44:54;;;;;;;20.20;13.15;;;15.40;99.90;;;;;;6275963;22;20039;-68
2024/03/14 09:47:41;;;;;;;17.30;11.55;;;15.50;99.90;;;;;;6271172;22;20124;-68
2024/03/14 09:50:27;;;;;;;17.67;11.05;;;15.60;99.90;;;;;;6274912;22;20015;-67
2024/03/14 09:53:16;;;;;;;18.23;11.02;;;15.70;99.90;;;;;;6271782;22;20094;-68
2024/03/14 09:56:02;;;;;;;17.95;11.57;;;15.80;99.90;;;;;;6273752;22;20014;-69
2024/03/14 09:58:48;;;;;;;18.25;11.45;;;15.80;99.90;;;;;;6272994;22;20016;-67
2024/03/14 10:01:34;;;;;;;21.70;10.60;;;16.00;99.90;;;;;;6273856;22;20010;-67
2024/03/14 10:04:22;;;;;;;20.90;11.15;;;16.00;99.90;;;;;;6272358;22;20016;-67
2024/03/14 10:07:07;;;;;;;15.98;10.57;;;16.10;99.90;;;;;;6272762;22;20023;-68
2024/03/14 10:09:55;;;;;;;14.80;9.70;;;16.20;99.90;;;;;;6273585;22;20012;-67
2024/03/14 10:12:52;;;;;;;16.27;11.32;;;16.30;99.90;;;;;;6273782;22;20020;-68
2024/03/14 10:15:38;;;;;;;15.73;10.27;;;16.40;99.90;;;;;;6273138;22;20073;-69
2024/03/14 10:18:27;;;;;;;24.02;11.07;;;16.50;99.90;;;;;;6272644;22;20007;-68
2024/03/14 10:21:14;;;;;;;15.45;9.85;;;16.60;99.90;;;;;;6273580;22;20008;-67
2024/03/14 10:24:01;;;;;;;19.10;11.32;;;16.70;99.90;;;;;;6289625;22;20034;-67
2024/03/14 10:26:48;;;;;;;14.85;9.88;;;16.80;99.90;;;;;;6301537;22;20012;-65
2024/03/14 10:29:36;;;;;;;15.18;9.52;;;16.90;99.90;;;;;;6291624;22;20015;-68
2024/03/14 10:32:23;;;;;;;18.30;10.95;;;16.90;99.90;;;;;;6254417;22;20020;-68
2024/03/14 10:35:14;;;;;;;15.80;10.02;;;17.00;99.90;;;;;;6270873;22;20011;-67
2024/03/14 10:38:01;;;;;;;18.13;10.35;;;17.10;99.70;;;;;;6273746;22;20503;-68
2024/03/14 10:40:51;;;;;;;15.43;9.35;;;17.20;99.60;;;;;;6272949;22;20016;-68
2024/03/14 10:43:40;;;;;;;14.73;9.27;;;17.20;99.30;;;;;;6272107;22;20035;-68
2024/03/14 10:46:29;;;;;;;13.43;8.43;;;17.30;99.10;;;;;;6272584;22;20016;-67
2024/03/14 10:49:16;;;;;;;13.50;8.05;;;17.30;98.90;;;;;;6272584;22;20007;-67
2024/03/14 10:52:04;;;;;;;11.48;7.82;;;17.40;98.70;;;;;;6270696;22;20026;-68
2024/03/14 10:54:50;;;;;;;12.68;7.47;;;17.40;98.30;;;;;;6270719;22;20250;-69
2024/03/14 10:57:40;;;;;;;20.65;8.73;;;17.50;98.10;;;;;;6271399;22;20446;-68
2024/03/14 11:00:26;;;;;;;12.07;7.45;;;17.50;97.80;;;;;;6264675;22;20722;-67
2024/03/14 11:03:17;;;;;;;11.95;7.22;;;17.60;97.70;;;;;;6272767;22;20030;-67
2024/03/14 11:06:04;;;;;;;10.60;7.20;;;17.60;97.50;;;;;;6272376;22;20008;-67
2024/03/14 11:08:56;;;;;;;9.15;5.72;;;17.60;97.20;;;;;;6251238;22;20045;-67
2024/03/14 11:11:48;;;;;;;10.43;6.85;;;17.70;96.90;;;;;;6271304;22;20501;-68
2024/03/14 11:14:39;;;;;;;9.30;5.88;;;17.70;96.70;;;;;;6271398;22;20008;-69
2024/03/14 11:17:28;;;;;;;12.93;6.85;;;17.80;96.40;;;;;;6271447;22;20003;-69
2024/03/14 11:20:23;;;;;;;10.40;7.28;;;17.80;96.30;;;;;;6273282;22;20008;-68
2024/03/14 11:23:15;;;;;;;9.00;5.60;;;17.90;96.10;;;;;;6270641;22;20011;-68
2024/03/14 11:26:07;;;;;;;8.30;5.13;;;17.90;95.90;;;;;;6268761;22;20020;-69
2024/03/14 11:29:02;;;;;;;9.13;5.25;;;18.00;95.50;;;;;;6248921;22;20078;-69
2024/03/14 11:32:09;;;;;;;12.55;6.57;;;18.00;95.00;;;;;;6271828;22;20024;-67
2024/03/14 11:34:58;;;;;;;8.75;5.20;;;18.10;94.80;;;;;;6275251;22;20014;-68
2024/03/14 11:37:53;;;;;;;7.75;5.07;;;18.10;94.30;;;;;;6270582;22;20349;-68
2024/03/14 11:40:39;;;;;;;7.28;4.53;;;18.10;94.40;;;;;;6268799;22;20343;-63
2024/03/14 11:43:26;;;;;;;9.65;5.80;;;18.20;94.20;;;;;;6272679;22;20039;-63
2024/03/14 11:46:14;;;;;;;8.95;5.40;;;18.20;93.90;;;;;;6270690;22;20025;-63
2024/03/14 11:49:14;;;;;;;8.77;5.40;;;18.20;93.60;;;;;;6271210;22;20286;-63
2024/03/14 11:52:00;;;;;;;9.60;4.90;;;18.30;93.50;;;;;;6270512;22;20456;-60
2024/03/14 11:54:55;;;;;;;8.30;5.00;;;18.30;93.40;;;;;;6270540;22;20379;-62
2024/03/14 11:57:48;;;;;;;7.20;4.78;;;18.20;93.10;;;;;;6272794;22;20046;-64
2024/03/14 12:00:34;;;;;;;6.72;4.70;;;18.20;93.10;;;;;;6271241;22;20099;-61
2024/03/14 12:03:25;;;;;;;8.88;4.22;;;18.20;93.00;;;;;;6272855;22;20460;-62
2024/03/14 12:06:16;;;;;;;9.50;4.13;;;18.20;92.80;;;;;;6270986;22;20008;-63
2024/03/14 12:09:04;;;;;;;5.50;3.92;;;18.10;92.70;;;;;;6269860;22;20436;-62
2024/03/14 12:11:50;;;;;;;5.72;3.90;;;18.10;92.50;;;;;;6269928;22;20453;-62
2024/03/14 12:14:36;;;;;;;7.65;4.28;;;18.10;92.40;;;;;;6271187;22;20083;-63
2024/03/14 12:17:23;;;;;;;8.07;3.55;;;18.10;92.20;;;;;;6271317;22;20011;-62
2024/03/14 12:20:10;;;;;;;5.38;3.00;;;18.20;92.00;;;;;;6271846;22;20008;-63
2024/03/14 12:22:57;;;;;;;6.78;3.33;;;18.20;91.80;;;;;;6270484;22;20008;-62
2024/03/14 12:25:46;;;;;;;4.65;2.70;;;18.20;91.70;;;;;;6270679;22;20058;-63
2024/03/14 12:28:34;;;;;;;4.60;2.85;;;18.20;91.40;;;;;;6251010;22;20012;-63
2024/03/14 12:31:20;;;;;;;4.43;2.90;;;18.20;91.30;;;;;;6272417;22;20023;-62
2024/03/14 12:34:06;;;;;;;7.05;3.42;;;18.20;91.20;;;;;;6274308;22;20008;-61
2024/03/14 12:36:52;;;;;;;6.93;3.72;;;18.10;91.20;;;;;;6274563;22;20359;-62
2024/03/14 12:39:50;;;;;;;4.53;3.08;;;18.10;91.10;;;;;;6273769;22;20321;-64
2024/03/14 12:42:36;;;;;;;5.65;3.63;;;18.00;90.90;;;;;;6268915;22;20008;-63
2024/03/14 12:45:25;;;;;;;4.95;3.40;;;18.00;90.90;;;;;;6273285;22;20008;-64
2024/03/14 12:48:17;;;;;;;5.32;3.22;;;17.90;90.90;;;;;;6249331;22;20015;-63
2024/03/14 12:51:12;;;;;;;6.28;4.05;;;17.90;91.00;;;;;;6271643;22;20031;-64
2024/03/14 12:54:02;;;;;;;7.72;4.15;;;17.90;91.00;;;;;;6274209;22;20365;-63
2024/03/14 12:56:53;;;;;;;6.85;4.45;;;17.90;90.90;;;;;;6272528;22;20455;-64
2024/03/14 12:59:40;;;;;;;7.45;4.70;;;18.00;91.00;;;;;;6272619;22;20004;-64
2024/03/14 13:02:26;;;;;;;6.15;4.70;;;18.00;91.00;;;;;;6274171;22;20340;-64
2024/03/14 13:05:14;;;;;;;7.20;4.63;;;18.10;91.10;;;;;;6273880;22;20080;-64
2024/03/14 13:08:06;;;;;;;9.05;5.05;;;18.10;91.00;;;;;;6273315;22;20012;-63
2024/03/14 13:11:11;;;;;;;7.72;5.10;;;18.20;91.00;;;;;;6272124;22;20058;-63
2024/03/14 13:14:25;;;;;;;9.60;5.55;;;18.20;91.00;;;;;;6274143;22;20011;-64
2024/03/14 13:17:12;;;;;;;9.30;5.75;;;18.20;91.00;;;;;;6274022;22;20015;-64
2024/03/14 13:19:58;;;;;;;8.23;5.97;;;18.20;90.90;;;;;;6270949;22;20007;-64
2024/03/14 13:22:44;;;;;;;7.75;5.88;;;18.20;90.80;;;;;;6273413;22;20432;-64
2024/03/14 13:25:30;;;;;;;9.80;5.13;;;18.20;90.80;;;;;;6273137;22;20008;-64
2024/03/14 13:28:18;;;;;;;6.85;4.80;;;18.10;90.80;;;;;;6273344;22;20011;-64
2024/03/14 13:31:05;;;;;;;9.45;5.40;;;18.10;90.90;;;;;;6273363;22;20038;-64
2024/03/14 13:33:54;;;;;;;7.97;5.18;;;18.00;91.00;;;;;;6273214;22;20012;-63
2024/03/14 13:36:40;;;;;;;9.13;5.43;;;18.00;90.90;;;;;;6273801;22;20016;-63
2024/03/14 13:39:26;;;;;;;9.82;6.03;;;18.00;91.00;;;;;;6271306;22;20367;-63
2024/03/14 13:42:12;;;;;;;8.95;6.03;;;17.90;90.90;;;;;;6272546;22;20027;-63
2024/03/14 13:44:59;;;;;;;8.57;5.30;;;17.90;91.00;;;;;;6273316;22;20046;-63
2024/03/14 13:47:50;;;;;;;9.18;6.22;;;17.90;91.00;;;;;;6252003;22;20007;-64
2024/03/14 13:50:37;;;;;;;9.07;6.20;;;17.80;91.00;;;;;;6287702;22;20008;-63
2024/03/14 13:53:25;;;;;;;9.20;5.75;;;17.80;91.10;;;;;;6297254;22;20035;-62
2024/03/14 13:56:13;;;;;;;8.55;5.50;;;17.70;91.10;;;;;;6275495;22;20035;-64
2024/03/14 13:59:02;;;;;;;8.27;5.43;;;17.60;91.10;;;;;;6271830;22;20375;-63
2024/03/14 14:01:48;;;;;;;8.02;4.85;;;17.60;91.20;;;;;;6271651;22;20031;-64
2024/03/14 14:04:34;;;;;;;7.13;5.05;;;17.60;91.10;;;;;;6272583;22;20031;-64
2024/03/14 14:07:20;;;;;;;9.98;6.50;;;17.50;91.10;;;;;;6271867;22;20003;-64
2024/03/14 14:10:09;;;;;;;9.25;5.43;;;17.50;91.10;;;;;;6273646;22;20012;-63
2024/03/14 14:12:55;;;;;;;8.20;4.82;;;17.40;91.00;;;;;;6249789;22;20292;-63
2024/03/14 14:15:43;;;;;;;8.13;5.32;;;17.40;91.00;;;;;;6272262;22;20356;-63
2024/03/14 14:18:29;;;;;;;7.82;5.30;;;17.40;91.00;;;;;;6271628;22;20012;-63
2024/03/14 14:21:15;;;;;;;7.97;4.85;;;17.30;91.10;;;;;;6272609;22;20026;-64
2024/03/14 14:24:01;;;;;;;6.55;4.43;;;17.30;91.10;;;;;;6271670;22;20014;-64
2024/03/14 14:26:47;;;;;;;7.60;4.15;;;17.30;91.10;;;;;;6272738;22;20007;-63
2024/03/14 14:29:33;;;;;;;6.93;5.10;;;17.30;91.20;;;;;;6273628;22;20003;-63
2024/03/14 14:32:23;;;;;;;7.13;4.65;;;17.20;91.20;;;;;;6271153;22;20054;-64
2024/03/14 14:35:09;;;;;;;7.50;4.88;;;17.30;91.30;;;;;;6273445;22;20007;-64
2024/03/14 14:37:55;;;;;;;6.63;4.90;;;17.20;91.30;;;;;;6272342;22;20024;-62
2024/03/14 14:40:42;;;;;;;5.72;4.05;;;17.20;91.40;;;;;;6272358;22;20062;-64
2024/03/14 14:43:28;;;;;;;6.90;4.97;;;17.20;91.40;;;;;;6273090;22;20012;-62
2024/03/14 14:46:14;;;;;;;5.75;4.22;;;17.20;91.40;;;;;;6273231;22;20007;-61
2024/03/14 14:49:01;;;;;;;5.47;3.80;;;17.20;91.40;;;;;;6270276;22;20317;-62
2024/03/14 14:51:49;;;;;;;7.97;4.22;;;17.20;91.40;;;;;;6273116;22;20537;-64
2024/03/14 14:54:37;;;;;;;9.48;4.82;;;17.20;91.40;;;;;;6271537;22;20012;-65
2024/03/14 14:57:24;;;;;;;6.47;4.50;;;17.20;91.50;;;;;;6272871;22;20436;-65
2024/03/14 15:00:11;;;;;;;5.75;3.55;;;17.20;91.50;;;;;;6272447;22;20211;-65
2024/03/14 15:03:00;;;;;;;8.00;4.32;;;17.30;91.50;;;;;;6269630;22;20015;-64
2024/03/14 15:05:46;;;;;;;5.95;4.25;;;17.30;91.50;;;;;;6272797;22;20007;-65
2024/03/14 15:08:32;;;;;;;7.45;4.60;;;17.30;91.60;;;;;;6271225;22;20019;-64
2024/03/14 15:11:19;;;;;;;5.85;4.22;;;17.30;91.50;;;;;;6272307;22;20012;-64
2024/03/14 15:14:05;;;;;;;5.97;3.95;;;17.40;91.50;;;;;;6274353;22;20412;-64
2024/03/14 15:16:53;;;;;;;8.70;4.53;;;17.40;91.50;;;;;;6273691;22;20487;-65
2024/03/14 15:19:40;;;;;;;5.40;3.55;;;17.40;91.40;;;;;;6272235;22;20018;-64
2024/03/14 15:22:28;;;;;;;6.25;3.88;;;17.40;91.40;;;;;;6272498;22;20341;-65
2024/03/14 15:25:16;;;;;;;4.63;3.33;;;17.50;91.40;;;;;;6274850;22;20010;-65
2024/03/14 15:28:03;;;;;;;9.90;4.40;;;17.50;91.40;;;;;;6273059;22;20019;-66
2024/03/14 15:30:49;;;;;;;6.63;3.83;;;17.60;91.30;;;;;;6270841;22;20710;-64
2024/03/14 15:33:35;;;;;;;5.22;3.33;;;17.60;91.30;;;;;;6272845;22;20449;-65
2024/03/14 15:36:22;;;;;;;5.72;3.25;;;17.70;91.30;;;;;;6270494;22;20007;-66
2024/03/14 15:39:10;;;;;;;7.10;3.83;;;17.70;91.30;;;;;;6270483;22;20428;-64
2024/03/14 15:41:59;;;;;;;6.80;4.38;;;17.70;91.20;;;;;;6272730;22;20389;-65
2024/03/14 15:44:45;;;;;;;7.80;4.30;;;17.70;91.10;;;;;;6272351;22;20535;-64
2024/03/14 15:47:34;;;;;;;7.85;4.25;;;17.70;91.10;;;;;;6271870;22;20008;-66
2024/03/14 15:50:21;;;;;;;6.07;4.40;;;17.70;91.10;;;;;;6272514;22;20042;-65
2024/03/14 15:53:10;;;;;;;5.13;3.67;;;17.70;91.10;;;;;;6270300;22;20059;-65
2024/03/14 15:55:56;;;;;;;7.32;4.85;;;17.60;91.10;;;;;;6272025;22;20015;-66
2024/03/14 15:58:43;;;;;;;9.10;4.45;;;17.60;91.10;;;;;;6268420;22;20007;-65
2024/03/14 16:01:30;;;;;;;7.32;3.92;;;17.50;91.10;;;;;;6273042;22;20015;-65
2024/03/14 16:04:19;;;;;;;16.48;6.50;;;17.50;91.10;;;;;;6274635;22;20039;-65
2024/03/14 16:07:06;;;;;;;7.82;3.83;;;17.40;91.10;;;;;;6273189;22;20000;-66
2024/03/14 16:09:52;;;;;;;5.70;3.80;;;17.30;91.20;;;;;;6272915;22;20437;-65
2024/03/14 16:12:38;;;;;;;5.85;4.28;;;17.30;91.60;;;;;;6274277;22;20019;-65
2024/03/14 16:15:24;;;;;;;8.02;4.22;;;17.10;91.30;;;;;;6274308;22;20458;-65
2024/03/14 16:18:11;;;;;;;7.82;4.28;;;17.10;91.40;;;;;;6273856;22;20019;-65
2024/03/14 16:20:57;;;;;;;7.47;4.50;;;17.00;91.40;;;;;;6273410;22;20011;-65
2024/03/14 16:23:47;;;;;;;6.32;4.25;;;17.00;91.50;;;;;;6272871;22;20011;-68
2024/03/14 16:26:33;;;;;;;6.75;4.95;;;16.90;91.70;;;;;;6274024;22;20313;-69
2024/03/14 16:29:22;;;;;;;7.70;5.18;;;16.80;91.80;;;;;;6274293;22;20039;-68
2024/03/14 16:32:10;;;;;;;6.70;4.63;;;16.80;91.90;;;;;;6272742;22;20165;-68
2024/03/14 16:34:55;;;;;;;7.57;4.80;;;16.70;92.00;;;;;;6251758;22;20003;-68
2024/03/14 16:37:42;;;;;;;8.90;5.45;;;16.60;92.10;;;;;;6273292;22;20050;-68
2024/03/14 16:40:31;;;;;;;7.10;5.05;;;16.60;92.20;;;;;;6272898;22;20004;-68
2024/03/14 16:43:18;;;;;;;14.27;4.97;;;16.50;92.30;;;;;;6274633;22;20258;-68
2024/03/14 16:46:04;;;;;;;9.60;5.35;;;16.50;92.40;;;;;;6272723;22;20012;-68
2024/03/14 16:48:51;;;;;;;9.13;5.55;;;16.40;92.50;;;;;;6272865;22;20086;-68
2024/03/14 16:51:37;;;;;;;8.10;4.53;;;16.30;92.70;;;;;;6274398;22;20026;-68
2024/03/14 16:54:29;;;;;;;9.93;5.95;;;16.30;92.80;;;;;;6273276;22;20007;-68
2024/03/14 16:57:15;;;;;;;7.95;5.13;;;16.20;92.90;;;;;;6273922;22;20142;-68
2024/03/14 17:00:01;;;;;;;7.90;5.68;;;16.20;93.10;;;;;;6273839;22;20436;-68
2024/03/14 17:02:51;;;;;;;9.40;6.38;;;16.10;93.20;;;;;;6271719;22;20030;-68
2024/03/14 17:05:36;;;;;;;8.93;5.90;;;16.10;93.30;;;;;;6272431;22;20008;-67
2024/03/14 17:08:23;;;;;;;8.00;6.20;;;16.00;93.40;;;;;;6250281;22;20046;-65
2024/03/14 17:11:16;;;;;;;7.97;5.55;;;16.00;93.50;;;;;;6273393;22;20008;-66
2024/03/14 17:14:01;;;;;;;9.80;6.03;;;15.90;93.60;;;;;;6273818;22;20008;-68
2024/03/14 17:16:49;;;;;;;9.77;5.82;;;15.80;93.70;;;;;;6272275;22;20012;-68
2024/03/14 17:19:35;;;;;;;8.98;5.45;;;15.80;93.90;;;;;;6294729;22;19995;-68
2024/03/14 17:22:39;;;;;;;8.93;5.25;;;15.70;94.00;;;;;;5118045;27;20947;-67
2024/03/14 17:25:26;;;;;;;8.00;5.97;;;15.70;94.20;;;;;;5098238;27;20566;-68
2024/03/14 17:28:12;;;;;;;8.45;6.13;;;15.60;94.20;;;;;;5100000;28;20036;-68
2024/03/14 17:30:58;;;;;;;10.77;6.18;;;15.60;94.40;;;;;;5124743;27;20546;-68
2024/03/14 17:33:45;;;;;;;9.65;6.80;;;15.50;94.50;;;;;;5116088;27;20028;-69
2024/03/14 17:36:31;;;;;;;9.77;6.43;;;15.40;94.60;;;;;;5113767;27;20043;-68
2024/03/14 17:39:23;;;;;;;9.20;6.57;;;15.40;94.70;;;;;;5122323;27;20030;-68
2024/03/14 17:42:10;;;;;;;12.93;7.63;;;15.40;94.80;;;;;;5130392;27;20054;-68